Home   Weather   Tajikistan   Dushanbe   Past weeks
Flag for Tajikistan

Past Weather in Dushanbe, Tajikistan — Yesterday and Last 2 Weeks

Currently: 43 °F. Quite cool. (Weather station: Dushanbe Airport, Tajikistan). See more current weather

Past Weather in Dushanbe — Graph

°F

Dushanbe Temperature Yesterday

Maximum temperature yesterday: 61 °F (at 2:30 pm)
Minimum temperature yesterday: 34 °F (at 6:00 am)
Average temperature yesterday: 46 °F

High & Low Weather Summary for the Past Weeks

 TemperatureHumidityPressure
High73 °F (Dec 2, 1:30 pm)93% (Nov 27, 6:00 am)30.42 "Hg (Nov 27, 6:00 am)
Low32 °F (Dec 9, 7:00 am)11% (Dec 3, 11:30 am)29.98 "Hg (Dec 3, 1:30 pm)
Average49 °F57%30.20 "Hg
* Reported Nov 24 9:00 am — Dec 9 9:30 am, Dushanbe. Weather by CustomWeather, © 2021

Note: Actual official high and low records may vary slightly from our data, if they occured in-between our weather recording intervals... More about our weather records

Dushanbe Weather History for the Previous 24 Hours

Scroll right to see more
 ConditionsComfort  
Time TempWeatherWind HumidityBarometerVisibility
9:30 am
Thu, Dec 9
43 °FQuite cool.3 mph66%30.39 "Hg1 mi
9:00 am43 °FSleet. Clear.No wind61%30.39 "Hg2 mi
8:42 am39 °FSleet. Clear.1 mph70%30.39 "Hg3 mi
8:30 am37 °FSleet. Clear.No wind65%30.39 "Hg1 mi
8:00 am37 °FClear.1 mph65%30.39 "Hg3 mi
7:42 am36 °FClear.No wind70%30.39 "Hg4 mi
7:30 am34 °FFog.1 mph75%30.39 "Hg3 mi
7:00 am32 °FClear.No wind80%30.39 "Hg4 mi
6:30 am37 °FClear.3 mph65%30.36 "HgN/A
6:00 am37 °FClear.1 mph60%30.36 "HgN/A
5:30 am37 °FClear.1 mph65%30.36 "HgN/A
5:00 am37 °FClear.No wind65%30.36 "HgN/A
4:30 am36 °FClear.No wind70%30.36 "HgN/A
4:00 am37 °FClear.No wind70%30.36 "Hg6 mi
3:30 am37 °FClear.1 mph70%30.36 "Hg5 mi
3:00 am37 °FClear.1 mph65%30.36 "Hg4 mi
2:30 am39 °FClear.1 mph65%30.36 "Hg6 mi
2:00 am37 °FClear.1 mph70%30.36 "Hg5 mi
1:30 am39 °FClear.1 mph70%30.36 "Hg5 mi
1:00 am39 °FClear.1 mph65%30.36 "Hg4 mi
12:30 am41 °FClear.1 mph61%30.36 "Hg4 mi
12:00 am41 °FClear.1 mph66%30.36 "Hg4 mi
11:30 pm
Wed, Dec 8
39 °FClear.No wind65%30.36 "Hg4 mi
11:00 pm43 °FClear.1 mph61%30.36 "Hg4 mi
10:44 pm41 °FClear.1 mph61%30.36 "Hg4 mi
10:30 pm43 °FClear.1 mph61%30.36 "Hg3 mi
10:08 pm43 °FClear.1 mph61%30.36 "Hg2 mi
9:30 pm45 °FClear.1 mph57%30.36 "Hg3 mi
9:22 pm45 °FClear.3 mph57%30.36 "Hg3 mi
9:00 pm46 °FClear.3 mph53%30.36 "Hg2 mi
8:30 pm46 °FClear.1 mph53%30.36 "Hg2 mi
8:00 pm46 °FClear.No wind53%30.36 "Hg3 mi
7:30 pm45 °FClear.No wind57%30.33 "Hg2 mi
7:19 pm46 °FClear.1 mph53%30.33 "Hg2 mi
6:30 pm50 °FClear.1 mph47%30.33 "Hg3 mi
6:00 pm52 °FClear.1 mph44%30.33 "Hg3 mi
5:14 pm55 °FClear.1 mph36%30.33 "Hg4 mi
5:03 pm55 °FClear.1 mph33%30.33 "Hg3 mi
4:30 pm59 °FClear.3 mph29%30.30 "HgN/A
4:00 pm59 °FPassing clouds.3 mph31%30.30 "HgN/A
3:30 pm61 °FPassing clouds.3 mph29%30.33 "Hg5 mi
2:30 pm61 °FPassing clouds.1 mph27%30.33 "HgN/A
2:00 pm59 °FPassing clouds.3 mph29%30.33 "HgN/A
1:30 pm59 °FPassing clouds.3 mph31%30.33 "Hg6 mi
1:00 pm59 °FPassing clouds.1 mph31%30.36 "Hg5 mi
12:30 pm57 °FPassing clouds.1 mph33%30.36 "Hg4 mi
12:00 pm55 °FPassing clouds.1 mph41%30.39 "Hg3 mi
11:00 am50 °FClear.1 mph47%30.42 "Hg2 mi
10:30 am46 °FClear.1 mph53%30.42 "Hg2 mi
10:00 am46 °FClear.1 mph53%30.42 "Hg1 mi
Weather by CustomWeather, © 2021

See weather overview